createdAt,value
2023-05-19T00:01:15.353Z,80.50
2023-05-19T00:03:53.690Z,80.50
2023-05-19T00:06:25.198Z,80.53
2023-05-19T00:09:02.500Z,80.47
2023-05-19T00:11:29.819Z,80.70
2023-05-19T00:13:58.431Z,80.51
2023-05-19T00:16:26.513Z,80.59
2023-05-19T00:18:54.279Z,80.40
2023-05-19T00:21:21.288Z,80.37
2023-05-19T00:23:47.906Z,80.10
2023-05-19T00:26:15.814Z,80.44
2023-05-19T00:28:42.317Z,80.35
2023-05-19T00:31:08.975Z,80.30
2023-05-19T00:33:35.572Z,80.15
2023-05-19T00:36:06.002Z,80.47
2023-05-19T00:38:34.365Z,80.46
2023-05-19T00:41:02.006Z,80.86
2023-05-19T00:43:30.297Z,80.85
2023-05-19T00:45:57.599Z,80.97
2023-05-19T00:48:25.556Z,80.97
2023-05-19T00:50:54.728Z,80.86
2023-05-19T00:53:21.524Z,81.34
2023-05-19T00:55:48.164Z,81.17
2023-05-19T00:58:15.409Z,81.39
2023-05-19T01:00:43.319Z,81.43
2023-05-19T01:03:13.298Z,81.56
2023-05-19T01:05:41.758Z,81.63
2023-05-19T01:08:09.056Z,81.60
2023-05-19T01:10:35.689Z,81.97
2023-05-19T01:13:04.445Z,82.16
2023-05-19T01:15:33.979Z,82.50
2023-05-19T01:18:07.482Z,82.11
2023-05-19T01:20:48.177Z,82.55
2023-05-19T01:23:36.579Z,82.65
2023-05-19T01:26:03.181Z,82.45
2023-05-19T01:28:53.769Z,82.99
2023-05-19T01:31:23.888Z,82.83
2023-05-19T01:33:52.451Z,83.39
2023-05-19T01:36:19.875Z,83.08
2023-05-19T01:38:48.283Z,83.14
2023-05-19T01:41:14.758Z,83.52
2023-05-19T01:43:41.531Z,83.63
2023-05-19T01:46:08.661Z,84.07
2023-05-19T01:48:35.659Z,83.84
2023-05-19T01:51:02.244Z,83.89
2023-05-19T01:53:28.799Z,84.25
2023-05-19T01:55:56.609Z,84.30
2023-05-19T01:58:47.358Z,84.63
2023-05-19T02:01:20.214Z,84.56
2023-05-19T02:03:59.482Z,84.78
2023-05-19T02:06:47.936Z,84.98
2023-05-19T02:09:25.865Z,85.26
2023-05-19T02:11:55.826Z,85.03
2023-05-19T02:14:27.651Z,85.39
2023-05-19T02:16:55.113Z,85.57
2023-05-19T02:19:24.199Z,85.74
2023-05-19T02:21:51.032Z,85.56
2023-05-19T02:24:18.016Z,85.83
2023-05-19T02:26:44.551Z,85.93
2023-05-19T02:29:11.168Z,86.27
2023-05-19T02:31:38.337Z,86.31
2023-05-19T02:34:05.001Z,86.18
2023-05-19T02:36:35.087Z,86.43
2023-05-19T02:39:04.305Z,86.52
2023-05-19T02:41:31.472Z,86.64
2023-05-19T02:43:58.081Z,86.87
2023-05-19T02:46:24.691Z,86.62
2023-05-19T02:48:52.336Z,87.10
2023-05-19T02:51:18.896Z,87.04
2023-05-19T02:53:45.447Z,86.88
2023-05-19T02:56:12.018Z,87.33
2023-05-19T02:58:39.451Z,87.32
2023-05-19T03:01:06.081Z,87.44
2023-05-19T03:03:32.896Z,87.33
2023-05-19T03:05:59.494Z,87.34
2023-05-19T03:08:26.044Z,87.66
2023-05-19T03:10:52.673Z,87.84
2023-05-19T03:13:19.467Z,87.83
2023-05-19T03:15:46.161Z,88.13
2023-05-19T03:18:12.864Z,88.46
2023-05-19T03:20:41.692Z,88.31
2023-05-19T03:23:09.088Z,88.65
2023-05-19T03:25:35.692Z,88.74
2023-05-19T03:28:02.227Z,88.86
2023-05-19T03:30:28.799Z,88.99
2023-05-19T03:32:55.419Z,89.32
2023-05-19T03:35:22.116Z,89.47
2023-05-19T03:37:48.753Z,89.73
2023-05-19T03:40:15.770Z,89.92
2023-05-19T03:42:42.346Z,89.46
2023-05-19T03:45:09.176Z,89.75
2023-05-19T03:47:35.854Z,90.02
2023-05-19T03:50:02.508Z,89.96
2023-05-19T03:52:29.056Z,90.22
2023-05-19T03:54:57.568Z,90.86
2023-05-19T03:57:23.955Z,90.75
2023-05-19T03:59:50.653Z,90.18
2023-05-19T04:02:17.226Z,90.63
2023-05-19T04:04:43.954Z,90.29
2023-05-19T04:07:10.479Z,90.36
2023-05-19T04:09:37.687Z,90.61
2023-05-19T04:12:04.765Z,90.46
2023-05-19T04:14:31.366Z,90.36
2023-05-19T04:16:58.137Z,90.65
2023-05-19T04:19:24.959Z,90.45
2023-05-19T04:21:51.920Z,90.42
2023-05-19T04:24:18.457Z,90.84
2023-05-19T04:26:47.070Z,90.79
2023-05-19T04:29:13.956Z,90.78
2023-05-19T04:31:41.201Z,90.86
2023-05-19T04:34:10.724Z,90.77
2023-05-19T04:36:37.821Z,90.82
2023-05-19T04:39:07.907Z,90.60
2023-05-19T04:41:34.966Z,90.58
2023-05-19T04:44:01.566Z,90.34
2023-05-19T04:46:30.344Z,90.39
2023-05-19T04:48:57.244Z,90.10
2023-05-19T04:51:30.348Z,90.41
2023-05-19T04:53:59.677Z,90.10
2023-05-19T04:56:27.365Z,89.78
2023-05-19T04:58:54.045Z,89.72
2023-05-19T05:01:22.602Z,89.49
2023-05-19T05:03:49.327Z,89.25
2023-05-19T05:06:16.319Z,89.15
2023-05-19T05:08:42.916Z,89.24
2023-05-19T05:11:09.953Z,89.30
2023-05-19T05:13:36.821Z,89.34
2023-05-19T05:16:06.613Z,89.54
2023-05-19T05:18:34.407Z,88.83
2023-05-19T05:21:01.472Z,88.68
2023-05-19T05:23:28.335Z,89.02
2023-05-19T05:25:55.145Z,88.25
2023-05-19T05:28:21.788Z,88.02
2023-05-19T05:30:49.101Z,87.57
2023-05-19T05:33:16.451Z,87.36
2023-05-19T05:35:43.169Z,86.77
2023-05-19T05:38:11.490Z,87.29
2023-05-19T05:40:38.045Z,86.65
2023-05-19T05:43:04.604Z,86.74
2023-05-19T05:45:31.411Z,86.35
2023-05-19T05:47:58.398Z,85.38
2023-05-19T05:50:25.397Z,85.11
2023-05-19T05:52:53.815Z,84.81
2023-05-19T05:55:20.464Z,84.30
2023-05-19T05:57:48.830Z,84.08
2023-05-19T06:00:15.963Z,83.10
2023-05-19T06:02:49.397Z,82.71
2023-05-19T06:05:16.623Z,82.38
2023-05-19T06:07:43.753Z,82.21
2023-05-19T06:10:10.403Z,81.73
2023-05-19T06:12:40.594Z,81.32
2023-05-19T06:15:08.178Z,80.87
2023-05-19T06:17:37.561Z,79.26
2023-05-19T06:20:08.656Z,79.10
2023-05-19T06:22:35.320Z,78.66
2023-05-19T06:25:01.914Z,78.42
2023-05-19T06:27:28.538Z,78.23
2023-05-19T06:29:55.136Z,77.68
2023-05-19T06:32:21.788Z,77.78
2023-05-19T06:34:54.337Z,77.18
2023-05-19T06:37:23.051Z,75.96
2023-05-19T06:39:52.808Z,76.21
2023-05-19T06:42:22.977Z,75.37
2023-05-19T06:44:53.296Z,75.59
2023-05-19T06:47:20.005Z,75.91
2023-05-19T06:49:46.868Z,74.76
2023-05-19T06:52:13.948Z,74.04
2023-05-19T06:54:40.478Z,73.49
2023-05-19T06:57:07.171Z,73.47
2023-05-19T06:59:33.835Z,73.20
2023-05-19T07:02:02.340Z,72.29
2023-05-19T07:04:29.033Z,71.66
2023-05-19T07:06:55.719Z,71.36
2023-05-19T07:09:22.282Z,71.41
2023-05-19T07:11:48.799Z,71.33
2023-05-19T07:14:15.562Z,71.50
2023-05-19T07:16:42.267Z,70.92
2023-05-19T07:19:09.093Z,69.85
2023-05-19T07:21:35.845Z,69.86
2023-05-19T07:24:02.408Z,69.43
2023-05-19T07:26:29.191Z,68.83
2023-05-19T07:28:56.804Z,68.75
2023-05-19T07:31:23.516Z,68.42
2023-05-19T07:33:51.575Z,67.82
2023-05-19T07:36:19.754Z,66.92
2023-05-19T07:38:46.766Z,65.98
2023-05-19T07:41:13.368Z,65.80
2023-05-19T07:43:40.155Z,65.86
2023-05-19T07:46:07.015Z,65.77
2023-05-19T07:48:33.674Z,65.25
2023-05-19T07:51:00.747Z,65.27
2023-05-19T07:53:28.023Z,64.68
2023-05-19T07:55:55.462Z,64.18
2023-05-19T07:58:23.021Z,63.60
2023-05-19T08:00:49.643Z,62.71
2023-05-19T08:03:18.342Z,62.28
2023-05-19T08:05:45.605Z,62.15
2023-05-19T08:08:12.853Z,62.35
2023-05-19T08:10:39.689Z,61.89
2023-05-19T08:13:06.306Z,60.96
2023-05-19T08:15:32.981Z,60.74
2023-05-19T08:17:59.610Z,60.19
2023-05-19T08:20:26.249Z,59.83
2023-05-19T08:22:52.908Z,59.42
2023-05-19T08:25:20.063Z,59.69
2023-05-19T08:27:46.627Z,58.40
2023-05-19T08:30:13.486Z,57.42
2023-05-19T08:32:40.425Z,56.90
2023-05-19T08:35:07.695Z,56.34
2023-05-19T08:37:37.102Z,54.01
2023-05-19T08:40:05.476Z,52.82
2023-05-19T08:42:33.221Z,51.77
2023-05-19T08:45:01.233Z,51.96
2023-05-19T08:47:28.649Z,48.58
2023-05-19T08:50:07.761Z,46.27
2023-05-19T08:52:57.835Z,44.50
2023-05-19T08:55:29.805Z,43.99
2023-05-19T08:57:56.828Z,43.56
2023-05-19T09:00:23.813Z,41.95
2023-05-19T09:03:00.777Z,41.67
2023-05-19T09:05:33.360Z,41.39
2023-05-19T09:08:02.938Z,40.24
2023-05-19T09:10:29.543Z,42.26
2023-05-19T09:12:56.425Z,40.98
2023-05-19T09:15:26.915Z,40.29
2023-05-19T09:18:07.070Z,39.95
2023-05-19T09:20:37.274Z,39.26
2023-05-19T09:23:03.949Z,38.43
2023-05-19T09:25:30.531Z,35.85
2023-05-19T09:27:57.233Z,33.33
2023-05-19T09:30:24.121Z,34.43
2023-05-19T09:32:51.395Z,34.51
2023-05-19T09:35:20.544Z,34.29
2023-05-19T09:37:47.292Z,34.56
2023-05-19T09:40:15.684Z,33.74
2023-05-19T09:42:43.961Z,34.05
2023-05-19T09:45:11.386Z,35.02
2023-05-19T09:47:40.351Z,33.07
2023-05-19T09:50:12.005Z,33.93
2023-05-19T09:52:39.251Z,33.40
2023-05-19T09:55:06.776Z,33.91
2023-05-19T09:57:37.892Z,32.93
2023-05-19T10:00:12.075Z,32.90
2023-05-19T10:02:41.279Z,32.51
2023-05-19T10:05:09.715Z,31.10
2023-05-19T10:07:37.714Z,31.80
2023-05-19T10:10:04.758Z,32.22
2023-05-19T10:12:31.967Z,32.79
2023-05-19T10:14:59.351Z,32.83
2023-05-19T10:17:26.309Z,32.71
2023-05-19T10:19:54.711Z,31.79
2023-05-19T10:22:21.762Z,31.49
2023-05-19T10:24:52.027Z,32.80
2023-05-19T10:27:18.980Z,32.38
2023-05-19T10:29:49.336Z,33.34
2023-05-19T10:32:19.718Z,30.75
2023-05-19T10:35:33.084Z,30.37
2023-05-19T10:38:17.945Z,31.51
2023-05-19T10:41:05.850Z,32.93
2023-05-19T10:43:42.468Z,32.92
2023-05-19T10:46:09.379Z,31.84
2023-05-19T10:48:38.780Z,30.68
2023-05-19T10:51:06.258Z,29.59
2023-05-19T10:53:33.394Z,29.37
2023-05-19T10:56:04.661Z,30.21
2023-05-19T10:58:46.453Z,31.38
2023-05-19T11:01:14.397Z,31.32
2023-05-19T11:03:57.079Z,30.37
2023-05-19T11:06:28.588Z,30.52
2023-05-19T11:09:01.010Z,29.41
2023-05-19T11:11:44.517Z,29.64
2023-05-19T11:14:13.085Z,29.14
2023-05-19T11:16:41.874Z,28.65
2023-05-19T11:19:09.160Z,28.72
2023-05-19T11:21:52.756Z,29.00
2023-05-19T11:24:35.322Z,28.75
2023-05-19T11:27:40.538Z,27.91
2023-05-19T11:30:14.857Z,26.65
2023-05-19T11:32:44.466Z,29.03
2023-05-19T11:35:11.614Z,29.53
2023-05-19T11:37:40.388Z,29.48
2023-05-19T11:40:07.736Z,28.75
2023-05-19T11:42:35.212Z,28.13
2023-05-19T11:45:02.222Z,27.13
2023-05-19T11:47:29.851Z,27.52
2023-05-19T11:49:57.419Z,27.03
2023-05-19T11:52:24.687Z,26.69
2023-05-19T11:54:51.581Z,26.93
2023-05-19T11:57:18.244Z,27.20
2023-05-19T11:59:46.078Z,27.36
2023-05-19T12:02:13.871Z,27.45
2023-05-19T12:04:40.994Z,26.22
2023-05-19T12:07:07.621Z,28.54
2023-05-19T12:09:34.410Z,28.83
2023-05-19T12:12:01.118Z,28.32
2023-05-19T12:14:30.023Z,28.01
2023-05-19T12:16:56.870Z,26.84
2023-05-19T12:19:25.992Z,26.65
2023-05-19T12:21:53.590Z,28.02
2023-05-19T12:24:20.685Z,27.58
2023-05-19T12:26:47.270Z,27.01
2023-05-19T12:29:14.010Z,26.11
2023-05-19T12:31:40.624Z,25.61
2023-05-19T12:34:07.233Z,26.14
2023-05-19T12:36:34.910Z,27.18
2023-05-19T12:39:01.827Z,27.50
2023-05-19T12:41:29.307Z,26.82
2023-05-19T12:43:56.265Z,26.81
2023-05-19T12:46:23.150Z,27.56
2023-05-19T12:48:49.844Z,28.81
2023-05-19T12:51:18.025Z,27.58
2023-05-19T12:53:45.788Z,28.02
2023-05-19T12:56:14.552Z,26.76
2023-05-19T12:58:42.227Z,28.33
2023-05-19T13:01:15.398Z,27.90
2023-05-19T13:03:42.902Z,26.67
2023-05-19T13:06:10.399Z,26.27
2023-05-19T13:08:37.799Z,27.12
2023-05-19T13:11:04.373Z,27.32
2023-05-19T13:13:31.170Z,28.13
2023-05-19T13:15:57.835Z,27.26
2023-05-19T13:18:24.525Z,27.39
2023-05-19T13:20:52.857Z,26.46
2023-05-19T13:23:19.650Z,27.13
2023-05-19T13:25:46.395Z,26.52
2023-05-19T13:28:13.026Z,26.52
2023-05-19T13:30:41.827Z,26.11
2023-05-19T13:33:08.664Z,26.56
2023-05-19T13:35:38.421Z,26.50
2023-05-19T13:38:06.136Z,26.36
2023-05-19T13:40:35.621Z,26.53
2023-05-19T13:43:03.260Z,26.10
2023-05-19T13:45:29.909Z,25.91
2023-05-19T13:47:57.061Z,25.15
2023-05-19T13:50:23.731Z,25.41
2023-05-19T13:52:50.276Z,26.55
2023-05-19T13:55:17.000Z,26.71
2023-05-19T13:57:44.237Z,26.54
2023-05-19T14:00:11.485Z,25.87
2023-05-19T14:02:38.258Z,25.07
2023-05-19T14:05:06.137Z,26.31
2023-05-19T14:07:34.730Z,26.30
2023-05-19T14:10:02.396Z,26.48
2023-05-19T14:12:38.127Z,25.93
2023-05-19T14:15:14.148Z,28.21
2023-05-19T14:17:40.901Z,28.89
2023-05-19T14:20:08.486Z,28.65
2023-05-19T14:22:35.225Z,28.83
2023-05-19T14:25:02.452Z,29.52
2023-05-19T14:27:29.045Z,28.50
2023-05-19T14:29:55.955Z,28.96
2023-05-19T14:32:22.556Z,29.29
2023-05-19T14:34:52.850Z,29.14
2023-05-19T14:37:20.205Z,29.64
2023-05-19T14:39:46.810Z,28.30
2023-05-19T14:42:13.472Z,28.01
2023-05-19T14:44:40.100Z,27.52
2023-05-19T14:47:07.556Z,27.68
2023-05-19T14:49:34.511Z,26.86
2023-05-19T14:52:01.287Z,27.10
2023-05-19T14:54:28.148Z,27.08
2023-05-19T14:56:54.855Z,26.31
2023-05-19T14:59:21.807Z,26.29
2023-05-19T15:01:48.457Z,25.26
2023-05-19T15:04:15.310Z,25.23
2023-05-19T15:06:41.894Z,25.03
2023-05-19T15:09:08.486Z,25.23
2023-05-19T15:11:35.059Z,24.86
2023-05-19T15:14:01.684Z,25.20
2023-05-19T15:16:28.429Z,24.77
2023-05-19T15:18:55.140Z,25.95
2023-05-19T15:21:21.656Z,26.05
2023-05-19T15:23:48.271Z,26.01
2023-05-19T15:26:14.944Z,26.63
2023-05-19T15:28:41.716Z,26.14
2023-05-19T15:31:08.603Z,25.74
2023-05-19T15:33:35.245Z,25.50
2023-05-19T15:36:01.842Z,24.22
2023-05-19T15:38:30.099Z,24.38
2023-05-19T15:40:57.229Z,25.19
2023-05-19T15:43:23.897Z,25.76
2023-05-19T15:45:52.298Z,25.31
2023-05-19T15:48:19.204Z,24.97
2023-05-19T15:50:45.959Z,25.45
2023-05-19T15:53:12.647Z,25.47
2023-05-19T15:55:39.251Z,26.22
2023-05-19T15:58:05.834Z,25.00
2023-05-19T16:00:32.690Z,25.85
2023-05-19T16:02:59.819Z,25.72
2023-05-19T16:05:26.586Z,25.21
2023-05-19T16:07:53.126Z,25.68
2023-05-19T16:10:19.786Z,25.31
2023-05-19T16:12:46.488Z,24.33
2023-05-19T16:15:13.079Z,24.85
2023-05-19T16:17:40.035Z,25.40
2023-05-19T16:20:07.356Z,25.42
2023-05-19T16:22:34.086Z,26.03
2023-05-19T16:25:00.731Z,25.07
2023-05-19T16:27:27.710Z,24.60
2023-05-19T16:29:55.129Z,24.79
2023-05-19T16:32:21.694Z,24.93
2023-05-19T16:34:48.247Z,25.38
2023-05-19T16:37:14.833Z,25.83
2023-05-19T16:39:43.750Z,26.28
2023-05-19T16:42:10.393Z,25.59
2023-05-19T16:44:36.976Z,26.11
2023-05-19T16:47:04.193Z,25.76
2023-05-19T16:49:31.077Z,25.48
2023-05-19T16:51:57.644Z,25.85
2023-05-19T16:54:24.679Z,27.14
2023-05-19T16:56:52.255Z,27.44
2023-05-19T16:59:18.817Z,28.06
2023-05-19T17:01:45.499Z,29.20
2023-05-19T17:04:12.154Z,28.79
2023-05-19T17:06:38.722Z,28.21
2023-05-19T17:09:05.305Z,27.63
2023-05-19T17:11:31.967Z,27.02
2023-05-19T17:13:58.709Z,27.20
2023-05-19T17:16:25.362Z,27.94
2023-05-19T17:18:52.004Z,27.75
2023-05-19T17:21:18.752Z,26.54
2023-05-19T17:23:45.579Z,27.40
2023-05-19T17:26:12.124Z,27.91
2023-05-19T17:28:38.721Z,27.95
2023-05-19T17:31:14.970Z,28.28
2023-05-19T17:33:41.590Z,28.05
2023-05-19T17:36:08.539Z,28.67
2023-05-19T17:38:35.793Z,28.78
2023-05-19T17:41:02.923Z,28.55
2023-05-19T17:43:29.615Z,28.36
2023-05-19T17:45:57.214Z,28.70
2023-05-19T17:48:25.925Z,29.09
2023-05-19T17:50:52.506Z,29.75
2023-05-19T17:53:19.411Z,37.71
2023-05-19T17:55:50.732Z,40.10
2023-05-19T17:58:18.708Z,41.96
2023-05-19T18:00:45.675Z,43.23
2023-05-19T18:03:12.557Z,43.50
2023-05-19T18:05:40.165Z,44.35
2023-05-19T18:08:09.234Z,46.13
2023-05-19T18:10:37.388Z,47.67
2023-05-19T18:13:04.714Z,48.03
2023-05-19T18:15:31.328Z,46.71
2023-05-19T18:17:58.018Z,45.68
2023-05-19T18:20:24.714Z,45.89
2023-05-19T18:22:51.428Z,45.96
2023-05-19T18:25:18.622Z,46.24
2023-05-19T18:27:45.405Z,47.07
2023-05-19T18:30:12.268Z,47.46
2023-05-19T18:32:38.928Z,47.74
2023-05-19T18:35:06.060Z,46.88
2023-05-19T18:37:32.681Z,47.49
2023-05-19T18:40:00.508Z,47.88
2023-05-19T18:42:27.152Z,48.16
2023-05-19T18:44:53.925Z,48.36
2023-05-19T18:47:22.740Z,49.11
2023-05-19T18:49:49.998Z,50.10
2023-05-19T18:52:16.590Z,49.75
2023-05-19T18:54:45.894Z,50.84
2023-05-19T18:57:12.781Z,50.59
2023-05-19T18:59:39.301Z,50.15
2023-05-19T19:02:06.595Z,50.19
2023-05-19T19:04:33.636Z,50.83
2023-05-19T19:07:00.354Z,50.69
2023-05-19T19:09:27.239Z,50.68
2023-05-19T19:11:53.786Z,50.88
2023-05-19T19:14:20.656Z,51.36
2023-05-19T19:16:47.270Z,51.36
2023-05-19T19:19:13.955Z,51.55
2023-05-19T19:21:40.631Z,52.14
2023-05-19T19:24:07.186Z,51.61
2023-05-19T19:26:33.802Z,52.75
2023-05-19T19:29:00.412Z,53.37
2023-05-19T19:31:28.805Z,53.28
2023-05-19T19:34:02.984Z,53.69
2023-05-19T19:36:29.792Z,54.74
2023-05-19T19:38:56.387Z,54.77
2023-05-19T19:41:23.220Z,55.53
2023-05-19T19:43:50.952Z,56.39
2023-05-19T19:46:17.600Z,56.42
2023-05-19T19:48:44.265Z,57.37
2023-05-19T19:51:10.926Z,57.47
2023-05-19T19:53:37.469Z,58.22
2023-05-19T19:56:05.016Z,58.62
2023-05-19T19:58:31.765Z,58.99
2023-05-19T20:01:08.300Z,59.54
2023-05-19T20:03:35.558Z,59.80
2023-05-19T20:06:02.306Z,60.62
2023-05-19T20:08:28.936Z,61.24
2023-05-19T20:10:55.700Z,61.71
2023-05-19T20:13:22.278Z,61.73
2023-05-19T20:15:48.913Z,61.75
2023-05-19T20:18:15.756Z,62.24
2023-05-19T20:20:42.487Z,62.96
2023-05-19T20:23:09.023Z,62.89
2023-05-19T20:25:58.473Z,63.02
2023-05-19T20:28:29.265Z,63.28
2023-05-19T20:30:55.955Z,63.78
2023-05-19T20:33:22.541Z,64.68
2023-05-19T20:35:49.094Z,64.05
2023-05-19T20:38:15.667Z,63.84
2023-05-19T20:40:42.216Z,64.31
2023-05-19T20:43:08.771Z,64.08
2023-05-19T20:45:35.726Z,64.33
2023-05-19T20:48:03.743Z,64.91
2023-05-19T20:50:30.701Z,64.92
2023-05-19T20:52:57.365Z,65.45
2023-05-19T20:55:23.944Z,65.32
2023-05-19T20:57:50.726Z,65.41
2023-05-19T21:00:17.575Z,65.12
2023-05-19T21:02:44.392Z,65.87
2023-05-19T21:05:11.319Z,66.45
2023-05-19T21:07:37.910Z,65.98
2023-05-19T21:10:04.887Z,66.47
2023-05-19T21:12:34.072Z,66.74
2023-05-19T21:15:01.560Z,66.64
2023-05-19T21:17:28.252Z,67.02
2023-05-19T21:19:58.087Z,67.80
2023-05-19T21:22:26.104Z,67.66
2023-05-19T21:24:53.611Z,67.27
2023-05-19T21:27:23.159Z,67.89
2023-05-19T21:29:54.031Z,68.14
2023-05-19T21:32:21.211Z,68.50
2023-05-19T21:34:47.789Z,68.42
2023-05-19T21:37:16.288Z,68.63
2023-05-19T21:39:43.281Z,68.74
2023-05-19T21:42:09.825Z,69.13
2023-05-19T21:44:36.446Z,69.04
2023-05-19T21:47:03.062Z,69.72
2023-05-19T21:49:29.861Z,69.70
2023-05-19T21:51:56.444Z,69.88
2023-05-19T21:54:22.985Z,70.01
2023-05-19T21:56:49.571Z,70.31
2023-05-19T21:59:16.101Z,70.48
2023-05-19T22:01:42.940Z,70.44
2023-05-19T22:04:10.278Z,70.53
2023-05-19T22:06:36.907Z,70.86
2023-05-19T22:09:04.353Z,71.09
2023-05-19T22:11:30.892Z,70.53
2023-05-19T22:13:57.442Z,70.91
2023-05-19T22:16:24.025Z,70.70
2023-05-19T22:18:50.657Z,70.81
2023-05-19T22:21:17.289Z,70.96
2023-05-19T22:23:44.095Z,70.98
2023-05-19T22:26:10.941Z,70.88
2023-05-19T22:28:37.491Z,71.12
2023-05-19T22:31:04.163Z,71.08
2023-05-19T22:33:30.966Z,71.30
2023-05-19T22:35:57.849Z,71.54
2023-05-19T22:38:24.396Z,71.66
2023-05-19T22:40:51.013Z,71.65
2023-05-19T22:43:17.618Z,71.81
2023-05-19T22:45:44.282Z,71.53
2023-05-19T22:48:11.618Z,71.87
2023-05-19T22:50:38.362Z,72.18
2023-05-19T22:53:04.991Z,72.20
2023-05-19T22:55:32.190Z,72.53
2023-05-19T22:57:59.058Z,72.17
2023-05-19T23:00:25.655Z,72.34
2023-05-19T23:02:52.227Z,71.78
2023-05-19T23:05:18.836Z,72.06
2023-05-19T23:07:45.523Z,72.30
2023-05-19T23:10:12.080Z,72.38
2023-05-19T23:12:39.992Z,72.35
2023-05-19T23:15:07.934Z,72.37
2023-05-19T23:17:34.547Z,72.43
2023-05-19T23:20:01.205Z,72.50
2023-05-19T23:22:27.788Z,72.45
2023-05-19T23:24:54.322Z,72.92
2023-05-19T23:27:20.851Z,72.80
2023-05-19T23:29:51.120Z,73.01
2023-05-19T23:32:17.869Z,73.19
2023-05-19T23:34:44.512Z,73.12
2023-05-19T23:37:11.720Z,72.83
2023-05-19T23:39:38.441Z,73.41
2023-05-19T23:42:05.812Z,73.12
2023-05-19T23:44:32.639Z,72.95
2023-05-19T23:46:59.415Z,72.90
2023-05-19T23:49:26.003Z,73.15
2023-05-19T23:51:52.711Z,73.16
2023-05-19T23:54:19.528Z,73.14
2023-05-19T23:56:46.171Z,73.41
2023-05-19T23:59:12.732Z,73.15
